sensor_id;sensor_type;location;lat;lon;timestamp;P1;durP1;ratioP1;P2;durP2;ratioP2
72949;SDS011;64868;45.710;9.590;2023-09-18T00:02:10;12.27;;;4.72;;
72949;SDS011;64868;45.710;9.590;2023-09-18T00:04:43;10.43;;;4.75;;
72949;SDS011;64868;45.710;9.590;2023-09-18T00:07:15;13.20;;;4.90;;
72949;SDS011;64868;45.710;9.590;2023-09-18T00:09:46;11.73;;;5.07;;
72949;SDS011;64868;45.710;9.590;2023-09-18T00:12:18;10.85;;;4.97;;
72949;SDS011;64868;45.710;9.590;2023-09-18T00:14:52;14.75;;;5.03;;
72949;SDS011;64868;45.710;9.590;2023-09-18T00:17:24;13.73;;;4.32;;
72949;SDS011;64868;45.710;9.590;2023-09-18T00:19:57;12.65;;;5.35;;
72949;SDS011;64868;45.710;9.590;2023-09-18T00:22:30;10.07;;;4.30;;
72949;SDS011;64868;45.710;9.590;2023-09-18T00:25:00;13.10;;;5.30;;
72949;SDS011;64868;45.710;9.590;2023-09-18T00:27:30;12.98;;;4.57;;
72949;SDS011;64868;45.710;9.590;2023-09-18T00:30:03;12.23;;;5.00;;
72949;SDS011;64868;45.710;9.590;2023-09-18T00:32:35;10.70;;;4.53;;
72949;SDS011;64868;45.710;9.590;2023-09-18T00:35:07;10.57;;;5.07;;
72949;SDS011;64868;45.710;9.590;2023-09-18T00:37:37;10.68;;;5.07;;
72949;SDS011;64868;45.710;9.590;2023-09-18T00:40:10;8.75;;;4.65;;
72949;SDS011;64868;45.710;9.590;2023-09-18T00:42:41;9.75;;;4.63;;
72949;SDS011;64868;45.710;9.590;2023-09-18T00:45:13;13.93;;;4.78;;
72949;SDS011;64868;45.710;9.590;2023-09-18T00:47:46;10.55;;;3.83;;
72949;SDS011;64868;45.710;9.590;2023-09-18T00:50:16;9.60;;;5.15;;
72949;SDS011;64868;45.710;9.590;2023-09-18T00:52:46;11.48;;;4.78;;
72949;SDS011;64868;45.710;9.590;2023-09-18T00:55:19;11.85;;;4.72;;
72949;SDS011;64868;45.710;9.590;2023-09-18T00:57:52;10.82;;;4.85;;
72949;SDS011;64868;45.710;9.590;2023-09-18T01:00:24;10.73;;;5.00;;
72949;SDS011;64868;45.710;9.590;2023-09-18T01:02:57;11.43;;;4.93;;
72949;SDS011;64868;45.710;9.590;2023-09-18T01:05:30;14.55;;;4.85;;
72949;SDS011;64868;45.710;9.590;2023-09-18T01:08:03;13.85;;;4.55;;
72949;SDS011;64868;45.710;9.590;2023-09-18T01:10:36;13.82;;;4.80;;
72949;SDS011;64868;45.710;9.590;2023-09-18T01:13:13;7.65;;;4.03;;
72949;SDS011;64868;45.710;9.590;2023-09-18T01:16:27;8.52;;;4.70;;
72949;SDS011;64868;45.710;9.590;2023-09-18T01:19:01;7.53;;;3.53;;
72949;SDS011;64868;45.710;9.590;2023-09-18T01:21:32;13.27;;;4.80;;
72949;SDS011;64868;45.710;9.590;2023-09-18T01:24:04;12.55;;;4.22;;
72949;SDS011;64868;45.710;9.590;2023-09-18T01:26:35;14.18;;;4.72;;
72949;SDS011;64868;45.710;9.590;2023-09-18T01:29:07;10.93;;;4.65;;
72949;SDS011;64868;45.710;9.590;2023-09-18T01:31:41;9.20;;;5.20;;
72949;SDS011;64868;45.710;9.590;2023-09-18T01:34:11;12.43;;;4.90;;
72949;SDS011;64868;45.710;9.590;2023-09-18T01:36:44;9.82;;;4.50;;
72949;SDS011;64868;45.710;9.590;2023-09-18T01:39:17;9.82;;;4.57;;
72949;SDS011;64868;45.710;9.590;2023-09-18T01:41:47;8.65;;;4.30;;
72949;SDS011;64868;45.710;9.590;2023-09-18T01:44:20;12.57;;;5.05;;
72949;SDS011;64868;45.710;9.590;2023-09-18T01:46:48;9.55;;;4.38;;
72949;SDS011;64868;45.710;9.590;2023-09-18T01:49:19;10.70;;;3.70;;
72949;SDS011;64868;45.710;9.590;2023-09-18T01:51:54;10.77;;;4.55;;
72949;SDS011;64868;45.710;9.590;2023-09-18T01:54:27;13.43;;;4.97;;
72949;SDS011;64868;45.710;9.590;2023-09-18T01:56:59;9.90;;;3.97;;
72949;SDS011;64868;45.710;9.590;2023-09-18T01:59:31;10.70;;;4.38;;
72949;SDS011;64868;45.710;9.590;2023-09-18T02:02:02;14.15;;;4.80;;
72949;SDS011;64868;45.710;9.590;2023-09-18T02:04:34;12.23;;;4.75;;
72949;SDS011;64868;45.710;9.590;2023-09-18T02:07:07;10.27;;;5.30;;
72949;SDS011;64868;45.710;9.590;2023-09-18T02:09:39;13.43;;;5.22;;
72949;SDS011;64868;45.710;9.590;2023-09-18T02:12:12;11.05;;;4.63;;
72949;SDS011;64868;45.710;9.590;2023-09-18T02:14:45;11.20;;;4.22;;
72949;SDS011;64868;45.710;9.590;2023-09-18T02:17:17;12.68;;;4.97;;
72949;SDS011;64868;45.710;9.590;2023-09-18T02:19:50;9.20;;;4.50;;
72949;SDS011;64868;45.710;9.590;2023-09-18T02:22:23;9.95;;;4.20;;
72949;SDS011;64868;45.710;9.590;2023-09-18T02:24:55;13.35;;;4.70;;
72949;SDS011;64868;45.710;9.590;2023-09-18T02:27:25;13.40;;;4.97;;
72949;SDS011;64868;45.710;9.590;2023-09-18T02:29:56;11.43;;;4.88;;
72949;SDS011;64868;45.710;9.590;2023-09-18T02:32:26;11.18;;;4.70;;
72949;SDS011;64868;45.710;9.590;2023-09-18T02:34:59;9.73;;;5.05;;
72949;SDS011;64868;45.710;9.590;2023-09-18T02:37:31;12.77;;;5.07;;
72949;SDS011;64868;45.710;9.590;2023-09-18T02:40:01;10.38;;;4.95;;
72949;SDS011;64868;45.710;9.590;2023-09-18T02:42:34;9.80;;;4.32;;
72949;SDS011;64868;45.710;9.590;2023-09-18T02:45:07;17.30;;;4.72;;
72949;SDS011;64868;45.710;9.590;2023-09-18T02:47:39;11.15;;;4.07;;
72949;SDS011;64868;45.710;9.590;2023-09-18T02:50:12;10.75;;;4.50;;
72949;SDS011;64868;45.710;9.590;2023-09-18T02:52:44;10.48;;;4.80;;
72949;SDS011;64868;45.710;9.590;2023-09-18T02:55:17;9.05;;;4.60;;
72949;SDS011;64868;45.710;9.590;2023-09-18T02:57:50;10.70;;;4.15;;
72949;SDS011;64868;45.710;9.590;2023-09-18T03:00:22;10.00;;;4.00;;
72949;SDS011;64868;45.710;9.590;2023-09-18T03:02:55;11.65;;;5.18;;
72949;SDS011;64868;45.710;9.590;2023-09-18T03:05:25;8.70;;;4.18;;
72949;SDS011;64868;45.710;9.590;2023-09-18T03:08:01;10.70;;;4.05;;
72949;SDS011;64868;45.710;9.590;2023-09-18T03:10:36;9.30;;;3.70;;
72949;SDS011;64868;45.710;9.590;2023-09-18T03:13:08;11.50;;;4.63;;
72949;SDS011;64868;45.710;9.590;2023-09-18T03:15:41;9.73;;;3.78;;
72949;SDS011;64868;45.710;9.590;2023-09-18T03:18:14;11.80;;;4.72;;
72949;SDS011;64868;45.710;9.590;2023-09-18T03:20:47;11.48;;;4.53;;
72949;SDS011;64868;45.710;9.590;2023-09-18T03:23:19;10.60;;;4.53;;
72949;SDS011;64868;45.710;9.590;2023-09-18T03:25:52;13.23;;;4.93;;
72949;SDS011;64868;45.710;9.590;2023-09-18T03:28:22;15.32;;;5.30;;
72949;SDS011;64868;45.710;9.590;2023-09-18T03:30:55;11.80;;;4.45;;
72949;SDS011;64868;45.710;9.590;2023-09-18T03:33:25;12.60;;;5.03;;
72949;SDS011;64868;45.710;9.590;2023-09-18T03:35:57;9.57;;;4.45;;
72949;SDS011;64868;45.710;9.590;2023-09-18T03:38:30;12.50;;;4.88;;
72949;SDS011;64868;45.710;9.590;2023-09-18T03:41:02;11.30;;;4.20;;
72949;SDS011;64868;45.710;9.590;2023-09-18T03:43:35;9.07;;;4.45;;
72949;SDS011;64868;45.710;9.590;2023-09-18T03:46:08;11.43;;;4.82;;
72949;SDS011;64868;45.710;9.590;2023-09-18T03:48:40;9.85;;;4.35;;
72949;SDS011;64868;45.710;9.590;2023-09-18T03:51:13;10.60;;;4.70;;
72949;SDS011;64868;45.710;9.590;2023-09-18T03:53:45;9.27;;;4.13;;
72949;SDS011;64868;45.710;9.590;2023-09-18T03:56:18;12.93;;;4.70;;
72949;SDS011;64868;45.710;9.590;2023-09-18T03:58:51;10.55;;;4.53;;
72949;SDS011;64868;45.710;9.590;2023-09-18T04:01:23;12.80;;;4.93;;
72949;SDS011;64868;45.710;9.590;2023-09-18T04:03:53;11.82;;;4.55;;
72949;SDS011;64868;45.710;9.590;2023-09-18T04:06:26;12.00;;;4.88;;
72949;SDS011;64868;45.710;9.590;2023-09-18T04:09:05;14.35;;;4.40;;
72949;SDS011;64868;45.710;9.590;2023-09-18T04:11:35;9.40;;;4.50;;
72949;SDS011;64868;45.710;9.590;2023-09-18T04:14:03;9.77;;;4.57;;
72949;SDS011;64868;45.710;9.590;2023-09-18T04:16:35;14.38;;;4.40;;
72949;SDS011;64868;45.710;9.590;2023-09-18T04:19:09;10.43;;;4.63;;
72949;SDS011;64868;45.710;9.590;2023-09-18T04:21:41;14.43;;;4.97;;
72949;SDS011;64868;45.710;9.590;2023-09-18T04:24:12;11.85;;;4.82;;
72949;SDS011;64868;45.710;9.590;2023-09-18T04:26:44;12.95;;;5.05;;
72949;SDS011;64868;45.710;9.590;2023-09-18T04:29:18;10.70;;;4.70;;
72949;SDS011;64868;45.710;9.590;2023-09-18T04:31:48;9.38;;;4.28;;
72949;SDS011;64868;45.710;9.590;2023-09-18T04:34:19;12.65;;;5.05;;
72949;SDS011;64868;45.710;9.590;2023-09-18T04:36:49;14.07;;;5.15;;
72949;SDS011;64868;45.710;9.590;2023-09-18T04:39:19;11.05;;;4.55;;
72949;SDS011;64868;45.710;9.590;2023-09-18T04:41:51;9.45;;;4.70;;
72949;SDS011;64868;45.710;9.590;2023-09-18T04:44:22;12.55;;;5.60;;
72949;SDS011;64868;45.710;9.590;2023-09-18T04:46:54;12.07;;;4.47;;
72949;SDS011;64868;45.710;9.590;2023-09-18T04:49:27;10.27;;;4.85;;
72949;SDS011;64868;45.710;9.590;2023-09-18T04:51:57;10.27;;;5.10;;
72949;SDS011;64868;45.710;9.590;2023-09-18T04:54:30;11.45;;;4.78;;
72949;SDS011;64868;45.710;9.590;2023-09-18T04:57:00;11.57;;;4.57;;
72949;SDS011;64868;45.710;9.590;2023-09-18T04:59:32;12.02;;;4.95;;
72949;SDS011;64868;45.710;9.590;2023-09-18T05:02:05;11.57;;;4.13;;
72949;SDS011;64868;45.710;9.590;2023-09-18T05:04:38;12.57;;;5.20;;
72949;SDS011;64868;45.710;9.590;2023-09-18T05:07:10;15.70;;;5.82;;
72949;SDS011;64868;45.710;9.590;2023-09-18T05:09:40;13.00;;;5.15;;
72949;SDS011;64868;45.710;9.590;2023-09-18T05:12:13;11.20;;;4.38;;
72949;SDS011;64868;45.710;9.590;2023-09-18T05:14:46;16.30;;;5.68;;
72949;SDS011;64868;45.710;9.590;2023-09-18T05:17:18;13.27;;;5.85;;
72949;SDS011;64868;45.710;9.590;2023-09-18T05:20:06;12.57;;;5.07;;
72949;SDS011;64868;45.710;9.590;2023-09-18T05:22:39;10.98;;;4.65;;
72949;SDS011;64868;45.710;9.590;2023-09-18T05:25:12;13.88;;;5.30;;
72949;SDS011;64868;45.710;9.590;2023-09-18T05:27:40;13.32;;;4.97;;
72949;SDS011;64868;45.710;9.590;2023-09-18T05:30:18;9.63;;;4.43;;
72949;SDS011;64868;45.710;9.590;2023-09-18T05:32:50;16.48;;;4.30;;
72949;SDS011;64868;45.710;9.590;2023-09-18T05:35:23;14.25;;;4.90;;
72949;SDS011;64868;45.710;9.590;2023-09-18T05:37:55;11.75;;;4.05;;
72949;SDS011;64868;45.710;9.590;2023-09-18T05:40:25;14.25;;;5.00;;
72949;SDS011;64868;45.710;9.590;2023-09-18T05:42:58;13.27;;;5.28;;
72949;SDS011;64868;45.710;9.590;2023-09-18T05:45:31;11.48;;;4.40;;
72949;SDS011;64868;45.710;9.590;2023-09-18T05:48:04;11.15;;;4.22;;
72949;SDS011;64868;45.710;9.590;2023-09-18T05:50:37;6.95;;;3.92;;
72949;SDS011;64868;45.710;9.590;2023-09-18T05:53:09;9.75;;;4.75;;
72949;SDS011;64868;45.710;9.590;2023-09-18T05:55:42;9.70;;;4.22;;
72949;SDS011;64868;45.710;9.590;2023-09-18T05:58:12;11.57;;;5.03;;
72949;SDS011;64868;45.710;9.590;2023-09-18T06:00:45;15.60;;;4.65;;
72949;SDS011;64868;45.710;9.590;2023-09-18T06:03:16;12.27;;;5.32;;
72949;SDS011;64868;45.710;9.590;2023-09-18T06:05:48;15.32;;;4.75;;
72949;SDS011;64868;45.710;9.590;2023-09-18T06:08:18;11.63;;;4.72;;
72949;SDS011;64868;45.710;9.590;2023-09-18T06:10:52;15.60;;;5.25;;
72949;SDS011;64868;45.710;9.590;2023-09-18T06:13:25;13.77;;;5.32;;
72949;SDS011;64868;45.710;9.590;2023-09-18T06:15:58;10.05;;;5.13;;
72949;SDS011;64868;45.710;9.590;2023-09-18T06:18:32;12.93;;;5.30;;
72949;SDS011;64868;45.710;9.590;2023-09-18T06:21:04;13.13;;;5.72;;
72949;SDS011;64868;45.710;9.590;2023-09-18T06:23:36;14.20;;;5.15;;
72949;SDS011;64868;45.710;9.590;2023-09-18T06:26:04;16.95;;;6.13;;
72949;SDS011;64868;45.710;9.590;2023-09-18T06:28:35;14.02;;;5.57;;
72949;SDS011;64868;45.710;9.590;2023-09-18T06:31:05;14.40;;;5.05;;
72949;SDS011;64868;45.710;9.590;2023-09-18T06:33:38;13.68;;;6.32;;
72949;SDS011;64868;45.710;9.590;2023-09-18T06:36:11;11.73;;;5.90;;
72949;SDS011;64868;45.710;9.590;2023-09-18T06:38:43;13.55;;;5.97;;
72949;SDS011;64868;45.710;9.590;2023-09-18T06:41:13;9.38;;;4.93;;
72949;SDS011;64868;45.710;9.590;2023-09-18T06:43:46;14.13;;;5.75;;
72949;SDS011;64868;45.710;9.590;2023-09-18T06:46:19;16.05;;;5.97;;
72949;SDS011;64868;45.710;9.590;2023-09-18T06:48:52;15.00;;;5.72;;
72949;SDS011;64868;45.710;9.590;2023-09-18T06:51:27;14.50;;;5.47;;
72949;SDS011;64868;45.710;9.590;2023-09-18T06:54:00;11.52;;;5.35;;
72949;SDS011;64868;45.710;9.590;2023-09-18T06:56:32;10.35;;;5.03;;
72949;SDS011;64868;45.710;9.590;2023-09-18T06:59:05;11.73;;;5.22;;
72949;SDS011;64868;45.710;9.590;2023-09-18T07:01:38;12.18;;;5.07;;
72949;SDS011;64868;45.710;9.590;2023-09-18T07:04:10;14.57;;;5.05;;
72949;SDS011;64868;45.710;9.590;2023-09-18T07:06:43;12.32;;;4.80;;
72949;SDS011;64868;45.710;9.590;2023-09-18T07:09:16;12.10;;;4.85;;
72949;SDS011;64868;45.710;9.590;2023-09-18T07:11:50;10.15;;;4.50;;
72949;SDS011;64868;45.710;9.590;2023-09-18T07:14:23;17.73;;;4.90;;
72949;SDS011;64868;45.710;9.590;2023-09-18T07:16:55;14.43;;;5.38;;
72949;SDS011;64868;45.710;9.590;2023-09-18T07:19:28;12.32;;;4.85;;
72949;SDS011;64868;45.710;9.590;2023-09-18T07:22:01;14.10;;;4.80;;
72949;SDS011;64868;45.710;9.590;2023-09-18T07:24:33;14.25;;;4.97;;
72949;SDS011;64868;45.710;9.590;2023-09-18T07:27:05;18.52;;;5.80;;
72949;SDS011;64868;45.710;9.590;2023-09-18T07:29:38;12.68;;;5.53;;
72949;SDS011;64868;45.710;9.590;2023-09-18T07:32:08;14.20;;;5.18;;
72949;SDS011;64868;45.710;9.590;2023-09-18T07:34:41;14.60;;;4.93;;
72949;SDS011;64868;45.710;9.590;2023-09-18T07:37:14;15.13;;;4.97;;
72949;SDS011;64868;45.710;9.590;2023-09-18T07:39:48;13.65;;;5.32;;
72949;SDS011;64868;45.710;9.590;2023-09-18T07:42:18;10.90;;;5.65;;
72949;SDS011;64868;45.710;9.590;2023-09-18T07:44:53;16.60;;;5.78;;
72949;SDS011;64868;45.710;9.590;2023-09-18T07:47:23;13.15;;;4.97;;
72949;SDS011;64868;45.710;9.590;2023-09-18T07:49:55;12.80;;;5.00;;
72949;SDS011;64868;45.710;9.590;2023-09-18T07:52:26;12.00;;;5.05;;
72949;SDS011;64868;45.710;9.590;2023-09-18T07:54:59;13.95;;;5.80;;
72949;SDS011;64868;45.710;9.590;2023-09-18T07:57:31;13.60;;;5.72;;
72949;SDS011;64868;45.710;9.590;2023-09-18T08:00:04;12.90;;;4.72;;
72949;SDS011;64868;45.710;9.590;2023-09-18T08:05:05;11.07;;;5.10;;
72949;SDS011;64868;45.710;9.590;2023-09-18T08:07:36;9.82;;;4.50;;
72949;SDS011;64868;45.710;9.590;2023-09-18T08:10:04;11.65;;;4.43;;
72949;SDS011;64868;45.710;9.590;2023-09-18T08:12:35;12.80;;;5.15;;
72949;SDS011;64868;45.710;9.590;2023-09-18T08:15:08;13.65;;;5.80;;
72949;SDS011;64868;45.710;9.590;2023-09-18T08:17:38;17.85;;;5.93;;
72949;SDS011;64868;45.710;9.590;2023-09-18T08:20:10;12.15;;;6.65;;
72949;SDS011;64868;45.710;9.590;2023-09-18T08:22:40;16.85;;;7.95;;
72949;SDS011;64868;45.710;9.590;2023-09-18T08:25:13;15.50;;;7.32;;
72949;SDS011;64868;45.710;9.590;2023-09-18T08:27:43;15.05;;;7.80;;
72949;SDS011;64868;45.710;9.590;2023-09-18T08:30:14;14.00;;;6.82;;
72949;SDS011;64868;45.710;9.590;2023-09-18T08:32:42;26.67;;;10.70;;
72949;SDS011;64868;45.710;9.590;2023-09-18T08:35:12;16.38;;;7.95;;
72949;SDS011;64868;45.710;9.590;2023-09-18T08:37:45;15.05;;;9.48;;
72949;SDS011;64868;45.710;9.590;2023-09-18T08:40:13;21.02;;;10.43;;
72949;SDS011;64868;45.710;9.590;2023-09-18T08:42:47;21.83;;;11.82;;
72949;SDS011;64868;45.710;9.590;2023-09-18T08:48:21;20.52;;;9.85;;
72949;SDS011;64868;45.710;9.590;2023-09-18T08:50:54;15.50;;;7.70;;
72949;SDS011;64868;45.710;9.590;2023-09-18T08:53:26;12.77;;;6.55;;
72949;SDS011;64868;45.710;9.590;2023-09-18T08:55:55;18.13;;;6.18;;
72949;SDS011;64868;45.710;9.590;2023-09-18T08:58:27;8.88;;;4.65;;
72949;SDS011;64868;45.710;9.590;2023-09-18T09:01:01;12.05;;;4.80;;
72949;SDS011;64868;45.710;9.590;2023-09-18T09:03:31;16.95;;;6.53;;
72949;SDS011;64868;45.710;9.590;2023-09-18T09:06:02;11.98;;;5.53;;
72949;SDS011;64868;45.710;9.590;2023-09-18T09:08:32;13.15;;;5.10;;
72949;SDS011;64868;45.710;9.590;2023-09-18T09:11:06;7.63;;;4.00;;
72949;SDS011;64868;45.710;9.590;2023-09-18T09:13:39;14.90;;;6.32;;
72949;SDS011;64868;45.710;9.590;2023-09-18T09:16:11;14.57;;;5.15;;
72949;SDS011;64868;45.710;9.590;2023-09-18T09:18:50;12.18;;;6.18;;
72949;SDS011;64868;45.710;9.590;2023-09-18T09:21:24;12.02;;;5.70;;
72949;SDS011;64868;45.710;9.590;2023-09-18T09:24:10;14.65;;;5.70;;
72949;SDS011;64868;45.710;9.590;2023-09-18T09:26:56;11.50;;;5.25;;
72949;SDS011;64868;45.710;9.590;2023-09-18T09:29:26;11.38;;;6.68;;
72949;SDS011;64868;45.710;9.590;2023-09-18T09:32:11;14.05;;;6.47;;
72949;SDS011;64868;45.710;9.590;2023-09-18T09:34:47;18.05;;;8.05;;
72949;SDS011;64868;45.710;9.590;2023-09-18T09:37:29;15.20;;;8.35;;
72949;SDS011;64868;45.710;9.590;2023-09-18T09:40:02;15.85;;;8.55;;
72949;SDS011;64868;45.710;9.590;2023-09-18T09:42:38;15.55;;;7.53;;
72949;SDS011;64868;45.710;9.590;2023-09-18T09:45:14;14.27;;;6.68;;
72949;SDS011;64868;45.710;9.590;2023-09-18T09:47:44;17.58;;;6.85;;
72949;SDS011;64868;45.710;9.590;2023-09-18T09:50:16;16.83;;;8.00;;
72949;SDS011;64868;45.710;9.590;2023-09-18T09:52:46;15.30;;;7.45;;
72949;SDS011;64868;45.710;9.590;2023-09-18T09:58:21;12.43;;;6.15;;
72949;SDS011;64868;45.710;9.590;2023-09-18T10:00:56;11.93;;;6.70;;
72949;SDS011;64868;45.710;9.590;2023-09-18T10:03:30;11.43;;;6.05;;
72949;SDS011;64868;45.710;9.590;2023-09-18T10:06:02;12.68;;;7.25;;
72949;SDS011;64868;45.710;9.590;2023-09-18T10:08:32;13.85;;;8.27;;
72949;SDS011;64868;45.710;9.590;2023-09-18T10:11:07;13.50;;;7.95;;
72949;SDS011;64868;45.710;9.590;2023-09-18T10:13:49;16.33;;;8.85;;
72949;SDS011;64868;45.710;9.590;2023-09-18T10:16:26;13.77;;;8.32;;
72949;SDS011;64868;45.710;9.590;2023-09-18T10:22:11;14.55;;;8.52;;
72949;SDS011;64868;45.710;9.590;2023-09-18T10:24:44;15.18;;;8.55;;
72949;SDS011;64868;45.710;9.590;2023-09-18T10:27:18;18.73;;;10.25;;
72949;SDS011;64868;45.710;9.590;2023-09-18T10:29:52;22.77;;;11.27;;
72949;SDS011;64868;45.710;9.590;2023-09-18T10:32:26;18.02;;;11.68;;
72949;SDS011;64868;45.710;9.590;2023-09-18T10:34:57;23.83;;;11.50;;
72949;SDS011;64868;45.710;9.590;2023-09-18T10:37:28;20.13;;;12.15;;
72949;SDS011;64868;45.710;9.590;2023-09-18T10:40:02;17.60;;;11.45;;
72949;SDS011;64868;45.710;9.590;2023-09-18T10:42:41;18.27;;;11.15;;
72949;SDS011;64868;45.710;9.590;2023-09-18T10:45:15;20.52;;;13.45;;
72949;SDS011;64868;45.710;9.590;2023-09-18T10:47:48;15.93;;;9.60;;
72949;SDS011;64868;45.710;9.590;2023-09-18T10:50:25;17.42;;;11.18;;
72949;SDS011;64868;45.710;9.590;2023-09-18T10:52:59;21.50;;;14.30;;
72949;SDS011;64868;45.710;9.590;2023-09-18T10:55:31;25.40;;;15.45;;
72949;SDS011;64868;45.710;9.590;2023-09-18T10:58:04;25.33;;;14.68;;
72949;SDS011;64868;45.710;9.590;2023-09-18T11:00:37;27.45;;;14.55;;
72949;SDS011;64868;45.710;9.590;2023-09-18T11:03:18;22.73;;;11.90;;
72949;SDS011;64868;45.710;9.590;2023-09-18T11:05:51;20.80;;;11.18;;
72949;SDS011;64868;45.710;9.590;2023-09-18T11:08:32;16.80;;;10.27;;
72949;SDS011;64868;45.710;9.590;2023-09-18T11:11:13;20.95;;;11.02;;
72949;SDS011;64868;45.710;9.590;2023-09-18T11:13:46;19.60;;;10.70;;
72949;SDS011;64868;45.710;9.590;2023-09-18T11:16:19;17.05;;;11.30;;
72949;SDS011;64868;45.710;9.590;2023-09-18T11:21:44;20.83;;;10.18;;
72949;SDS011;64868;45.710;9.590;2023-09-18T11:24:19;18.58;;;10.30;;
72949;SDS011;64868;45.710;9.590;2023-09-18T11:26:51;19.63;;;10.95;;
72949;SDS011;64868;45.710;9.590;2023-09-18T11:29:24;19.33;;;9.95;;
72949;SDS011;64868;45.710;9.590;2023-09-18T11:31:56;17.23;;;8.40;;
72949;SDS011;64868;45.710;9.590;2023-09-18T11:34:27;22.50;;;11.55;;
72949;SDS011;64868;45.710;9.590;2023-09-18T11:37:02;15.75;;;9.60;;
72949;SDS011;64868;45.710;9.590;2023-09-18T11:39:46;18.15;;;10.65;;
72949;SDS011;64868;45.710;9.590;2023-09-18T11:42:20;20.08;;;12.80;;
72949;SDS011;64868;45.710;9.590;2023-09-18T11:44:54;24.65;;;13.48;;
72949;SDS011;64868;45.710;9.590;2023-09-18T11:47:23;23.60;;;12.55;;
72949;SDS011;64868;45.710;9.590;2023-09-18T11:49:57;23.92;;;13.32;;
72949;SDS011;64868;45.710;9.590;2023-09-18T11:52:31;19.25;;;12.70;;
72949;SDS011;64868;45.710;9.590;2023-09-18T11:55:02;22.27;;;14.02;;
72949;SDS011;64868;45.710;9.590;2023-09-18T11:57:38;19.85;;;10.40;;
72949;SDS011;64868;45.710;9.590;2023-09-18T12:00:18;22.58;;;12.02;;
72949;SDS011;64868;45.710;9.590;2023-09-18T12:02:54;18.95;;;9.50;;
72949;SDS011;64868;45.710;9.590;2023-09-18T12:05:33;17.70;;;10.18;;
72949;SDS011;64868;45.710;9.590;2023-09-18T12:08:06;21.27;;;12.15;;
72949;SDS011;64868;45.710;9.590;2023-09-18T12:10:38;21.90;;;12.27;;
72949;SDS011;64868;45.710;9.590;2023-09-18T12:13:11;25.02;;;11.65;;
72949;SDS011;64868;45.710;9.590;2023-09-18T12:15:39;20.63;;;10.18;;
72949;SDS011;64868;45.710;9.590;2023-09-18T12:18:09;29.90;;;12.77;;
72949;SDS011;64868;45.710;9.590;2023-09-18T12:20:51;20.92;;;11.23;;
72949;SDS011;64868;45.710;9.590;2023-09-18T12:23:23;23.50;;;11.95;;
72949;SDS011;64868;45.710;9.590;2023-09-18T12:25:57;21.83;;;11.48;;
72949;SDS011;64868;45.710;9.590;2023-09-18T12:28:31;20.20;;;11.40;;
72949;SDS011;64868;45.710;9.590;2023-09-18T12:31:04;22.02;;;11.23;;
72949;SDS011;64868;45.710;9.590;2023-09-18T12:33:39;21.88;;;10.82;;
72949;SDS011;64868;45.710;9.590;2023-09-18T12:36:11;20.25;;;10.48;;
72949;SDS011;64868;45.710;9.590;2023-09-18T12:38:42;19.88;;;11.75;;
72949;SDS011;64868;45.710;9.590;2023-09-18T12:41:24;20.92;;;10.05;;
72949;SDS011;64868;45.710;9.590;2023-09-18T12:43:53;22.35;;;10.75;;
72949;SDS011;64868;45.710;9.590;2023-09-18T12:46:23;21.65;;;10.48;;
72949;SDS011;64868;45.710;9.590;2023-09-18T12:48:54;21.65;;;11.02;;
72949;SDS011;64868;45.710;9.590;2023-09-18T12:51:33;24.45;;;11.15;;
72949;SDS011;64868;45.710;9.590;2023-09-18T12:54:01;18.85;;;11.55;;
72949;SDS011;64868;45.710;9.590;2023-09-18T12:56:34;23.73;;;10.90;;
72949;SDS011;64868;45.710;9.590;2023-09-18T12:59:12;24.83;;;10.80;;
72949;SDS011;64868;45.710;9.590;2023-09-18T13:01:45;17.10;;;10.23;;
72949;SDS011;64868;45.710;9.590;2023-09-18T13:04:15;18.90;;;10.18;;
72949;SDS011;64868;45.710;9.590;2023-09-18T13:06:48;22.00;;;10.38;;
72949;SDS011;64868;45.710;9.590;2023-09-18T13:09:33;18.65;;;9.60;;
72949;SDS011;64868;45.710;9.590;2023-09-18T13:12:05;20.58;;;9.40;;
72949;SDS011;64868;45.710;9.590;2023-09-18T13:17:40;21.05;;;9.13;;
72949;SDS011;64868;45.710;9.590;2023-09-18T13:20:16;14.00;;;8.23;;
72949;SDS011;64868;45.710;9.590;2023-09-18T13:22:50;21.15;;;9.77;;
72949;SDS011;64868;45.710;9.590;2023-09-18T13:25:25;19.85;;;9.60;;
72949;SDS011;64868;45.710;9.590;2023-09-18T13:27:56;21.92;;;9.40;;
72949;SDS011;64868;45.710;9.590;2023-09-18T13:30:28;16.58;;;8.60;;
72949;SDS011;64868;45.710;9.590;2023-09-18T13:33:19;13.02;;;7.57;;
72949;SDS011;64868;45.710;9.590;2023-09-18T13:35:50;15.50;;;8.52;;
72949;SDS011;64868;45.710;9.590;2023-09-18T13:38:20;19.42;;;8.27;;
72949;SDS011;64868;45.710;9.590;2023-09-18T13:40:50;21.75;;;9.55;;
72949;SDS011;64868;45.710;9.590;2023-09-18T13:43:22;16.58;;;8.15;;
72949;SDS011;64868;45.710;9.590;2023-09-18T13:45:54;17.70;;;8.70;;
72949;SDS011;64868;45.710;9.590;2023-09-18T13:48:26;21.42;;;8.15;;
72949;SDS011;64868;45.710;9.590;2023-09-18T13:50:56;16.38;;;7.90;;
72949;SDS011;64868;45.710;9.590;2023-09-18T13:53:29;20.88;;;8.88;;
72949;SDS011;64868;45.710;9.590;2023-09-18T13:56:01;21.23;;;8.65;;
72949;SDS011;64868;45.710;9.590;2023-09-18T13:58:30;19.40;;;8.88;;
72949;SDS011;64868;45.710;9.590;2023-09-18T14:01:01;22.55;;;8.70;;
72949;SDS011;64868;45.710;9.590;2023-09-18T14:03:31;17.35;;;7.45;;
72949;SDS011;64868;45.710;9.590;2023-09-18T14:06:04;22.42;;;7.75;;
72949;SDS011;64868;45.710;9.590;2023-09-18T14:08:35;20.88;;;8.88;;
72949;SDS011;64868;45.710;9.590;2023-09-18T14:11:07;18.52;;;9.68;;
72949;SDS011;64868;45.710;9.590;2023-09-18T14:13:37;23.48;;;9.60;;
72949;SDS011;64868;45.710;9.590;2023-09-18T14:16:09;21.90;;;9.48;;
72949;SDS011;64868;45.710;9.590;2023-09-18T14:18:41;21.17;;;9.90;;
72949;SDS011;64868;45.710;9.590;2023-09-18T14:21:11;15.32;;;9.18;;
72949;SDS011;64868;45.710;9.590;2023-09-18T14:23:44;25.67;;;10.52;;
72949;SDS011;64868;45.710;9.590;2023-09-18T14:26:16;25.67;;;10.82;;
72949;SDS011;64868;45.710;9.590;2023-09-18T14:28:47;21.90;;;11.10;;
72949;SDS011;64868;45.710;9.590;2023-09-18T14:31:19;27.90;;;13.10;;
72949;SDS011;64868;45.710;9.590;2023-09-18T14:33:52;23.73;;;11.98;;
72949;SDS011;64868;45.710;9.590;2023-09-18T14:36:25;27.45;;;10.98;;
72949;SDS011;64868;45.710;9.590;2023-09-18T14:38:57;27.58;;;11.57;;
72949;SDS011;64868;45.710;9.590;2023-09-18T14:41:27;27.42;;;12.05;;
72949;SDS011;64868;45.710;9.590;2023-09-18T14:43:57;22.67;;;10.93;;
72949;SDS011;64868;45.710;9.590;2023-09-18T14:46:30;29.23;;;12.15;;
72949;SDS011;64868;45.710;9.590;2023-09-18T14:48:59;21.40;;;9.88;;
72949;SDS011;64868;45.710;9.590;2023-09-18T14:51:29;26.90;;;12.90;;
72949;SDS011;64868;45.710;9.590;2023-09-18T14:53:59;27.88;;;12.82;;
72949;SDS011;64868;45.710;9.590;2023-09-18T14:56:32;32.35;;;11.80;;
72949;SDS011;64868;45.710;9.590;2023-09-18T14:59:02;28.55;;;13.00;;
72949;SDS011;64868;45.710;9.590;2023-09-18T15:01:35;30.02;;;13.15;;
72949;SDS011;64868;45.710;9.590;2023-09-18T15:04:05;38.80;;;13.70;;
72949;SDS011;64868;45.710;9.590;2023-09-18T15:06:33;28.73;;;12.65;;
72949;SDS011;64868;45.710;9.590;2023-09-18T15:09:06;25.77;;;11.23;;
72949;SDS011;64868;45.710;9.590;2023-09-18T15:11:38;32.67;;;11.90;;
72949;SDS011;64868;45.710;9.590;2023-09-18T15:14:11;29.42;;;11.77;;
72949;SDS011;64868;45.710;9.590;2023-09-18T15:16:43;28.08;;;11.88;;
72949;SDS011;64868;45.710;9.590;2023-09-18T15:19:16;23.85;;;12.05;;
72949;SDS011;64868;45.710;9.590;2023-09-18T15:21:47;33.08;;;11.65;;
72949;SDS011;64868;45.710;9.590;2023-09-18T15:24:19;27.52;;;9.93;;